Time;durP1;ratioP1;P1;durP2;ratioP2;P2;SDS_P1;SDS_P2;PMS_P1;PMS_P2;Temp;Humidity;BMP_temperature;BMP_pressure;BME280_temperature;BME280_humidity;BME280_pressure;Samples;Min_cycle;Max_cycle;Signal;HPM_P1;HPM_P2
2022/08/29 00:00:11;;;;;;;;;;;;;;;;;;2194890;67;1196;-72
2022/08/29 00:02:47;;;;;;;;;;;;;;;;;;2195111;59;1129;-72
2022/08/29 00:05:21;;;;;;;;;;;;;;;;;;2195579;59;1225;-72
2022/08/29 00:07:55;;;;;;;;;;;;;;;;;;2195225;67;1184;-72
2022/08/29 00:10:28;;;;;;;;;;;;;;;;;;2195321;59;1374;-72
2022/08/29 00:13:01;;;;;;;;;;;;;;;;;;2195374;67;1303;-72
2022/08/29 00:15:35;;;;;;;;;;;;;;;;;;2195420;67;1989;-72
2022/08/29 00:18:11;;;;;;;;;;;;;;;;;;2195507;67;1201;-72
2022/08/29 00:20:45;;;;;;;;;;;;;;;;;;2195251;67;1240;-72
2022/08/29 00:23:18;;;;;;;;;;;;;;;;;;2195671;67;1341;-72
2022/08/29 00:25:51;;;;;;;;;;;;;;;;;;2195842;59;1228;-72
2022/08/29 00:28:25;;;;;;;;;;;;;;;;;;2195235;59;1582;-72
2022/08/29 00:30:58;;;;;;;;;;;;;;;;;;2195297;67;1166;-72
2022/08/29 00:33:34;;;;;;;;;;;;;;;;;;2195316;67;1105;-72
2022/08/29 00:36:07;;;;;;;;;;;;;;;;;;2195514;59;1988;-72
2022/08/29 00:38:41;;;;;;;;;;;;;;;;;;2195107;59;1086;-72
2022/08/29 00:41:14;;;;;;;;;;;;;;;;;;2195089;67;1242;-72
2022/08/29 00:43:48;;;;;;;;;;;;;;;;;;2195098;67;1278;-72
2022/08/29 00:46:33;;;;;;;;;;;;;;;;;;2195081;67;1286;-72
2022/08/29 00:49:13;;;;;;;;;;;;;;;;;;2195372;67;1191;-72
2022/08/29 00:51:47;;;;;;;;;;;;;;;;;;2193373;67;1404;-72
2022/08/29 00:54:21;;;;;;;;;;;;;;;;;;2195170;59;1245;-72
2022/08/29 00:56:54;;;;;;;;;;;;;;;;;;2193426;67;2011;-71
2022/08/29 00:59:30;;;;;;;;;;;;;;;;;;2194246;67;1307;-71
2022/08/29 01:02:04;;;;;;;;;;;;;;;;;;2194582;59;1208;-72
2022/08/29 01:04:41;;;;;;;;;;;;;;;;;;2194320;59;1250;-72
2022/08/29 01:07:14;;;;;;;;;;;;;;;;;;2195551;67;1143;-72
2022/08/29 01:09:48;;;;;;;;;;;;;;;;;;2195412;59;1275;-72
2022/08/29 01:12:22;;;;;;;;;;;;;;;;;;2196147;59;1255;-72
2022/08/29 01:14:57;;;;;;;;;;;;;;;;;;2195150;67;1239;-72
2022/08/29 01:17:32;;;;;;;;;;;;;;;;;;2194666;59;1980;-71
2022/08/29 01:20:12;;;;;;;;;;;;;;;;;;2194631;67;1065;-72
2022/08/29 01:22:51;;;;;;;;;;;;;;;;;;2195152;67;1085;-72
2022/08/29 01:25:30;;;;;;;;;;;;;;;;;;2195115;59;1284;-72
2022/08/29 01:28:05;;;;;;;;;;;;;;;;;;2194950;59;1628;-72
2022/08/29 01:30:39;;;;;;;;;;;;;;;;;;2194893;67;1085;-72
2022/08/29 01:33:12;;;;;;;;;;;;;;;;;;2193617;67;1188;-72
2022/08/29 01:35:45;;;;;;;;;;;;;;;;;;2194099;59;1924;-72
2022/08/29 01:38:26;;;;;;;;;;;;;;;;;;2195138;67;1272;-72
2022/08/29 01:41:02;;;;;;;;;;;;;;;;;;2194978;67;1193;-72
2022/08/29 01:43:40;;;;;;;;;;;;;;;;;;2194992;67;1121;-72
2022/08/29 01:46:14;;;;;;;;;;;;;;;;;;2194801;67;1234;-72
2022/08/29 01:48:48;;;;;;;;;;;;;;;;;;2195109;67;1097;-72
2022/08/29 01:51:23;;;;;;;;;;;;;;;;;;2194867;67;1218;-72
2022/08/29 01:53:56;;;;;;;;;;;;;;;;;;2193511;67;1188;-72
2022/08/29 01:56:33;;;;;;;;;;;;;;;;;;2193629;59;1921;-72
2022/08/29 01:59:07;;;;;;;;;;;;;;;;;;2195720;67;1011;-72
2022/08/29 02:01:42;;;;;;;;;;;;;;;;;;2195709;67;1324;-72
2022/08/29 02:04:15;;;;;;;;;;;;;;;;;;2194935;59;1307;-72
2022/08/29 02:06:49;;;;;;;;;;;;;;;;;;2194701;67;1204;-72
2022/08/29 02:09:22;;;;;;;;;;;;;;;;;;2194771;59;1423;-72
2022/08/29 02:12:01;;;;;;;;;;;;;;;;;;2195096;59;1295;-72
2022/08/29 02:14:35;;;;;;;;;;;;;;;;;;2197716;53;2327;-75
2022/08/29 02:17:08;;;;;;;;;;;;;;;;;;2192240;59;1952;-76
2022/08/29 02:19:42;;;;;;;;;;;;;;;;;;2192962;59;1150;-75
2022/08/29 02:22:15;;;;;;;;;;;;;;;;;;2194361;67;1279;-75
2022/08/29 02:24:48;;;;;;;;;;;;;;;;;;2193820;59;1222;-75
2022/08/29 02:27:24;;;;;;;;;;;;;;;;;;2193824;59;1579;-76
2022/08/29 02:29:58;;;;;;;;;;;;;;;;;;2194044;67;1238;-77
2022/08/29 02:32:31;;;;;;;;;;;;;;;;;;2194286;59;1208;-77
2022/08/29 02:35:04;;;;;;;;;;;;;;;;;;2190767;60;1329;-76
2022/08/29 02:37:37;;;;;;;;;;;;;;;;;;2194153;67;1931;-77
2022/08/29 02:40:11;;;;;;;;;;;;;;;;;;2196945;67;1323;-77
2022/08/29 02:42:47;;;;;;;;;;;;;;;;;;2194228;67;1094;-76
2022/08/29 02:45:20;;;;;;;;;;;;;;;;;;2194366;59;1223;-76
2022/08/29 02:47:54;;;;;;;;;;;;;;;;;;2194296;67;1093;-76
2022/08/29 02:50:27;;;;;;;;;;;;;;;;;;2194185;67;1338;-76
2022/08/29 02:53:00;;;;;;;;;;;;;;;;;;2194892;67;1187;-76
2022/08/29 02:55:34;;;;;;;;;;;;;;;;;;2194560;60;1310;-77
2022/08/29 02:58:09;;;;;;;;;;;;;;;;;;2194777;59;1941;-77
2022/08/29 03:00:43;;;;;;;;;;;;;;;;;;2194584;59;2143;-78
2022/08/29 03:03:16;;;;;;;;;;;;;;;;;;2193950;59;2378;-76
2022/08/29 03:05:50;;;;;;;;;;;;;;;;;;2194786;59;1256;-77
2022/08/29 03:08:23;;;;;;;;;;;;;;;;;;2195286;59;1323;-76
2022/08/29 03:10:56;;;;;;;;;;;;;;;;;;2195026;59;1339;-76
2022/08/29 03:13:32;;;;;;;;;;;;;;;;;;2194609;59;1447;-77
2022/08/29 03:16:06;;;;;;;;;;;;;;;;;;2191151;59;1937;-76
2022/08/29 03:18:39;;;;;;;;;;;;;;;;;;2194934;67;1343;-77
2022/08/29 03:21:16;;;;;;;;;;;;;;;;;;2191593;59;1856;-77
2022/08/29 03:23:50;;;;;;;;;;;;;;;;;;2194760;67;1193;-76
2022/08/29 03:26:23;;;;;;;;;;;;;;;;;;2194895;59;1722;-77
2022/08/29 03:28:59;;;;;;;;;;;;;;;;;;2194710;59;1435;-76
2022/08/29 03:31:32;;;;;;;;;;;;;;;;;;2196328;67;1307;-76
2022/08/29 03:34:05;;;;;;;;;;;;;;;;;;2194603;67;1191;-76
2022/08/29 03:36:38;;;;;;;;;;;;;;;;;;2195164;59;1932;-77
2022/08/29 03:39:11;;;;;;;;;;;;;;;;;;2194627;59;1641;-76
2022/08/29 03:41:45;;;;;;;;;;;;;;;;;;2194921;67;1128;-76
2022/08/29 03:44:20;;;;;;;;;;;;;;;;;;2194855;67;1083;-76
2022/08/29 03:46:54;;;;;;;;;;;;;;;;;;2194656;59;1141;-76
2022/08/29 03:49:27;;;;;;;;;;;;;;;;;;2194790;67;1166;-77
2022/08/29 03:52:00;;;;;;;;;;;;;;;;;;2194740;59;1250;-76
2022/08/29 03:54:33;;;;;;;;;;;;;;;;;;2195138;67;1203;-76
2022/08/29 03:57:06;;;;;;;;;;;;;;;;;;2194362;67;1931;-75
2022/08/29 03:59:42;;;;;;;;;;;;;;;;;;2194644;67;1094;-76
2022/08/29 04:02:17;;;;;;;;;;;;;;;;;;2193865;59;1258;-77
2022/08/29 04:07:46;;;;;;;;;;;;;;;;;;2191613;67;1269;-76
2022/08/29 04:10:21;;;;;;;;;;;;;;;;;;2191189;59;1429;-77
2022/08/29 04:12:55;;;;;;;;;;;;;;;;;;2191426;59;1307;-76
2022/08/29 04:15:32;;;;;;;;;;;;;;;;;;2194388;59;1215;-75
2022/08/29 04:18:06;;;;;;;;;;;;;;;;;;2194693;59;1990;-76
2022/08/29 04:20:43;;;;;;;;;;;;;;;;;;2194320;59;2855;-75
2022/08/29 04:23:17;;;;;;;;;;;;;;;;;;2194181;59;1702;-76
2022/08/29 04:25:50;;;;;;;;;;;;;;;;;;2194222;59;1582;-76
2022/08/29 04:28:23;;;;;;;;;;;;;;;;;;2194495;59;1700;-76
2022/08/29 04:30:59;;;;;;;;;;;;;;;;;;2194200;59;1181;-77
2022/08/29 04:33:32;;;;;;;;;;;;;;;;;;2194531;59;1230;-77
2022/08/29 04:36:07;;;;;;;;;;;;;;;;;;2194398;59;1279;-76
2022/08/29 04:38:40;;;;;;;;;;;;;;;;;;2193973;59;1936;-76
2022/08/29 04:41:14;;;;;;;;;;;;;;;;;;2194404;67;1200;-79
2022/08/29 04:43:48;;;;;;;;;;;;;;;;;;2194378;67;1242;-76
2022/08/29 04:46:24;;;;;;;;;;;;;;;;;;2194593;59;1258;-76
2022/08/29 04:48:57;;;;;;;;;;;;;;;;;;2190615;67;1165;-76
2022/08/29 04:51:30;;;;;;;;;;;;;;;;;;2193941;67;1117;-77
2022/08/29 04:54:05;;;;;;;;;;;;;;;;;;2194328;59;1260;-77
2022/08/29 04:56:39;;;;;;;;;;;;;;;;;;2194333;67;1989;-76
2022/08/29 04:59:12;;;;;;;;;;;;;;;;;;2194347;67;1236;-75
2022/08/29 05:01:48;;;;;;;;;;;;;;;;;;2193798;67;1114;-76
2022/08/29 05:04:21;;;;;;;;;;;;;;;;;;2194399;59;1255;-76
2022/08/29 05:06:54;;;;;;;;;;;;;;;;;;2194610;59;1129;-76
2022/08/29 05:09:27;;;;;;;;;;;;;;;;;;2194590;59;1272;-77
2022/08/29 05:12:00;;;;;;;;;;;;;;;;;;2194399;59;1255;-76
2022/08/29 05:14:33;;;;;;;;;;;;;;;;;;2194821;59;1203;-76
2022/08/29 05:17:09;;;;;;;;;;;;;;;;;;2194362;67;1958;-76
2022/08/29 05:19:43;;;;;;;;;;;;;;;;;;2194300;67;1125;-75
2022/08/29 05:22:16;;;;;;;;;;;;;;;;;;2194611;67;1188;-75
2022/08/29 05:24:50;;;;;;;;;;;;;;;;;;2194236;59;1279;-75
2022/08/29 05:27:24;;;;;;;;;;;;;;;;;;2194275;59;1666;-75
2022/08/29 05:29:57;;;;;;;;;;;;;;;;;;2193625;59;1773;-76
2022/08/29 05:32:33;;;;;;;;;;;;;;;;;;2191668;59;2495;-76
2022/08/29 05:35:06;;;;;;;;;;;;;;;;;;2194073;59;2425;-76
2022/08/29 05:37:40;;;;;;;;;;;;;;;;;;2194400;59;2405;-76
2022/08/29 05:40:13;;;;;;;;;;;;;;;;;;2196076;67;1200;-76
2022/08/29 05:42:46;;;;;;;;;;;;;;;;;;2194798;59;1269;-76
2022/08/29 05:45:19;;;;;;;;;;;;;;;;;;2194074;59;2443;-76
2022/08/29 05:47:55;;;;;;;;;;;;;;;;;;2194567;59;1331;-76
2022/08/29 05:50:28;;;;;;;;;;;;;;;;;;2190949;67;1211;-77
2022/08/29 05:53:01;;;;;;;;;;;;;;;;;;2194474;59;1366;-76
2022/08/29 05:55:34;;;;;;;;;;;;;;;;;;2194320;59;1207;-76
2022/08/29 05:58:07;;;;;;;;;;;;;;;;;;2194487;59;1912;-75
2022/08/29 06:00:41;;;;;;;;;;;;;;;;;;2194200;59;1251;-76
2022/08/29 06:03:17;;;;;;;;;;;;;;;;;;2193891;59;1180;-76
2022/08/29 06:05:52;;;;;;;;;;;;;;;;;;2194463;67;1253;-76
2022/08/29 06:08:25;;;;;;;;;;;;;;;;;;2194413;67;1207;-78
2022/08/29 06:10:58;;;;;;;;;;;;;;;;;;2194419;59;1315;-77
2022/08/29 06:13:31;;;;;;;;;;;;;;;;;;2194162;67;1112;-75
2022/08/29 06:16:04;;;;;;;;;;;;;;;;;;2194207;59;1220;-76
2022/08/29 06:18:40;;;;;;;;;;;;;;;;;;2193709;59;2026;-76
2022/08/29 06:21:14;;;;;;;;;;;;;;;;;;2193949;67;1181;-76
2022/08/29 06:23:48;;;;;;;;;;;;;;;;;;2194153;60;1160;-76
2022/08/29 06:26:21;;;;;;;;;;;;;;;;;;2190012;59;1419;-76
2022/08/29 06:28:54;;;;;;;;;;;;;;;;;;2193874;59;1661;-76
2022/08/29 06:31:28;;;;;;;;;;;;;;;;;;2194943;67;1047;-76
2022/08/29 06:34:06;;;;;;;;;;;;;;;;;;2194724;59;2283;-76
2022/08/29 06:36:39;;;;;;;;;;;;;;;;;;2192051;59;1291;-76
2022/08/29 06:39:13;;;;;;;;;;;;;;;;;;2193783;59;1995;-77
2022/08/29 06:41:46;;;;;;;;;;;;;;;;;;2190685;59;1517;-76
2022/08/29 06:44:20;;;;;;;;;;;;;;;;;;2194163;67;1247;-77
2022/08/29 06:46:54;;;;;;;;;;;;;;;;;;2194153;67;1129;-75
2022/08/29 06:49:31;;;;;;;;;;;;;;;;;;2194129;59;1334;-77
2022/08/29 06:52:04;;;;;;;;;;;;;;;;;;2193873;59;1343;-77
2022/08/29 06:54:37;;;;;;;;;;;;;;;;;;2194274;59;1215;-77
2022/08/29 06:57:10;;;;;;;;;;;;;;;;;;2193762;60;1099;-77
2022/08/29 06:59:43;;;;;;;;;;;;;;;;;;2194069;59;2001;-77
2022/08/29 07:02:16;;;;;;;;;;;;;;;;;;2194399;67;1188;-78
2022/08/29 07:04:52;;;;;;;;;;;;;;;;;;2194109;59;1343;-77
2022/08/29 07:07:25;;;;;;;;;;;;;;;;;;2194280;59;1370;-77
2022/08/29 07:09:58;;;;;;;;;;;;;;;;;;2193726;67;1223;-78
2022/08/29 07:12:31;;;;;;;;;;;;;;;;;;2193461;67;1260;-77
2022/08/29 07:15:05;;;;;;;;;;;;;;;;;;2193910;59;1207;-77
2022/08/29 07:17:39;;;;;;;;;;;;;;;;;;2194450;60;1945;-77
2022/08/29 07:20:15;;;;;;;;;;;;;;;;;;2193854;67;1237;-77
2022/08/29 07:22:50;;;;;;;;;;;;;;;;;;2194422;67;1236;-77
2022/08/29 07:25:23;;;;;;;;;;;;;;;;;;2194354;67;1310;-77
2022/08/29 07:27:56;;;;;;;;;;;;;;;;;;2190640;59;1928;-78
2022/08/29 07:30:30;;;;;;;;;;;;;;;;;;2190046;67;1117;-77
2022/08/29 07:33:03;;;;;;;;;;;;;;;;;;2193933;67;1227;-77
2022/08/29 07:35:39;;;;;;;;;;;;;;;;;;2194668;59;1293;-77
2022/08/29 07:38:12;;;;;;;;;;;;;;;;;;2195374;67;1933;-77
2022/08/29 07:40:45;;;;;;;;;;;;;;;;;;2195333;67;1145;-77
2022/08/29 07:43:18;;;;;;;;;;;;;;;;;;2195160;59;1299;-77
2022/08/29 07:45:51;;;;;;;;;;;;;;;;;;2194694;67;1263;-77
2022/08/29 07:48:25;;;;;;;;;;;;;;;;;;2191228;60;2108;-77
2022/08/29 07:51:01;;;;;;;;;;;;;;;;;;2194268;67;1137;-76
2022/08/29 07:53:34;;;;;;;;;;;;;;;;;;2194464;67;1185;-78
2022/08/29 07:56:08;;;;;;;;;;;;;;;;;;2194421;67;1219;-77
2022/08/29 07:58:42;;;;;;;;;;;;;;;;;;2194532;67;1999;-77
2022/08/29 08:01:15;;;;;;;;;;;;;;;;;;2194024;67;1101;-76
2022/08/29 08:03:48;;;;;;;;;;;;;;;;;;2194497;59;1301;-77
2022/08/29 08:06:25;;;;;;;;;;;;;;;;;;2191353;67;1260;-77
2022/08/29 08:08:59;;;;;;;;;;;;;;;;;;2194459;59;1262;-77
2022/08/29 08:11:32;;;;;;;;;;;;;;;;;;2194488;59;1323;-77
2022/08/29 08:14:05;;;;;;;;;;;;;;;;;;2194230;67;1767;-78
2022/08/29 10:00:44;;;;;;;;;;;;;;;;;;2335454;53;1667;-63
2022/08/29 10:03:21;;;;;;;;;;;;;;;;;;2190898;59;2357;-64
2022/08/29 10:06:06;;;;;;;;;;;;;;;;;;2190009;59;1704;-64
2022/08/29 10:08:41;;;;;;;;;;;;;;;;;;2189895;59;2616;-65
2022/08/29 10:11:22;;;;;;;;;;;;;;;;;;2189911;59;2457;-65
2022/08/29 10:13:57;;;;;;;;;;;;;;;;;;2189529;59;2379;-64
2022/08/29 10:16:38;;;;;;;;;;;;;;;;;;2191465;59;1309;-62
2022/08/29 10:19:13;;;;;;;;;;;;;;;;;;2190549;59;1929;-62
2022/08/29 10:21:51;;;;;;;;;;;;;;;;;;2191111;59;1232;-65
2022/08/29 10:24:32;;;;;;;;;;;;;;;;;;2191233;67;1172;-64
2022/08/29 10:27:11;;;;;;;;;;;;;;;;;;2191411;59;1627;-64
2022/08/29 10:30:02;;;;;;;;;;;;;;;;;;2190839;67;1224;-65
2022/08/29 10:32:46;;;;;;;;;;;;;;;;;;2190913;67;1234;-64
2022/08/29 10:35:26;;;;;;;;;;;;;;;;;;2191905;67;1248;-65
2022/08/29 10:38:01;;;;;;;;;;;;;;;;;;2191256;59;1930;-64
2022/08/29 10:40:41;;;;;;;;;;;;;;;;;;2190856;67;1192;-63
2022/08/29 10:43:35;;;;;;;;;;;;;;;;;;2190970;67;1242;-65
2022/08/29 10:46:14;;;;;;;;;;;;;;;;;;2191550;67;2490;-65
2022/08/29 10:48:55;;;;;;;;;;;;;;;;;;2190538;67;1449;-64
2022/08/29 10:51:33;;;;;;;;;;;;;;;;;;2191899;67;1208;-64
2022/08/29 10:54:11;;;;;;;;;;;;;;;;;;2190909;60;1146;-64
2022/08/29 10:56:46;;;;;;;;;;;;;;;;;;2190911;67;1104;-65
2022/08/29 10:59:30;;;;;;;;;;;;;;;;;;2190918;67;1987;-65
2022/08/29 11:02:07;;;;;;;;;;;;;;;;;;2190380;59;1302;-64
2022/08/29 11:04:46;;;;;;;;;;;;;;;;;;2190875;59;1249;-63
2022/08/29 11:07:22;;;;;;;;;;;;;;;;;;2191318;67;1248;-64
2022/08/29 11:09:57;;;;;;;;;;;;;;;;;;2190707;67;1125;-64
2022/08/29 11:12:33;;;;;;;;;;;;;;;;;;2191203;59;1279;-64
2022/08/29 11:15:09;;;;;;;;;;;;;;;;;;2191691;67;1069;-64
2022/08/29 11:17:44;;;;;;;;;;;;;;;;;;2191350;67;1097;-64
2022/08/29 11:20:23;;;;;;;;;;;;;;;;;;2191702;67;1942;-63
2022/08/29 11:23:00;;;;;;;;;;;;;;;;;;2191422;67;1208;-64
2022/08/29 11:25:34;;;;;;;;;;;;;;;;;;2191534;67;1184;-63
2022/08/29 11:28:10;;;;;;;;;;;;;;;;;;2191404;59;1595;-62
2022/08/29 11:30:49;;;;;;;;;;;;;;;;;;2191222;67;1204;-65
2022/08/29 11:33:27;;;;;;;;;;;;;;;;;;2191818;67;1234;-65
2022/08/29 11:36:13;;;;;;;;;;;;;;;;;;2191448;59;1245;-65
2022/08/29 11:39:07;;;;;;;;;;;;;;;;;;2191085;59;1937;-64
2022/08/29 11:41:43;;;;;;;;;;;;;;;;;;2190856;67;1176;-63
2022/08/29 11:44:21;;;;;;;;;;;;;;;;;;2191402;67;1144;-65
2022/08/29 11:46:54;;;;;;;;;;;;;;;;;;2191154;67;1074;-64
2022/08/29 11:49:34;;;;;;;;;;;;;;;;;;2191627;67;1286;-65
2022/08/29 11:52:30;;;;;;;;;;;;;;;;;;2191693;59;1252;-64
2022/08/29 11:55:24;;;;;;;;;;;;;;;;;;2191436;67;1260;-65
2022/08/29 11:58:21;;;;;;;;;;;;;;;;;;2191520;67;1054;-64
2022/08/29 12:00:56;;;;;;;;;;;;;;;;;;2190135;59;1937;-65
2022/08/29 12:03:53;;;;;;;;;;;;;;;;;;2191639;59;1237;-65
2022/08/29 12:06:43;;;;;;;;;;;;;;;;;;2191638;67;1189;-65
2022/08/29 12:09:34;;;;;;;;;;;;;;;;;;2190979;59;1290;-65
2022/08/29 12:12:28;;;;;;;;;;;;;;;;;;2191826;59;2015;-65
2022/08/29 12:15:24;;;;;;;;;;;;;;;;;;2191263;67;1109;-65
2022/08/29 12:18:01;;;;;;;;;;;;;;;;;;2190974;67;2008;-65
2022/08/29 12:20:42;;;;;;;;;;;;;;;;;;2191563;67;1950;-64
2022/08/29 12:23:21;;;;;;;;;;;;;;;;;;2191207;60;1198;-64
2022/08/29 12:25:55;;;;;;;;;;;;;;;;;;2191347;67;1106;-65
2022/08/29 12:28:34;;;;;;;;;;;;;;;;;;2191600;59;1807;-65
2022/08/29 12:31:11;;;;;;;;;;;;;;;;;;2191038;67;1231;-65
2022/08/29 12:33:57;;;;;;;;;;;;;;;;;;2191456;67;1187;-65
2022/08/29 12:36:33;;;;;;;;;;;;;;;;;;2191430;59;1323;-64
2022/08/29 12:39:17;;;;;;;;;;;;;;;;;;2191133;67;1926;-63
2022/08/29 12:42:02;;;;;;;;;;;;;;;;;;2191018;67;1220;-63
2022/08/29 12:44:36;;;;;;;;;;;;;;;;;;2191045;67;1177;-64
2022/08/29 12:47:11;;;;;;;;;;;;;;;;;;2192349;67;1236;-64
2022/08/29 12:49:50;;;;;;;;;;;;;;;;;;2190767;67;1144;-65
2022/08/29 12:52:25;;;;;;;;;;;;;;;;;;2191520;67;1230;-65
2022/08/29 12:55:01;;;;;;;;;;;;;;;;;;2190942;67;1280;-65
2022/08/29 12:57:37;;;;;;;;;;;;;;;;;;2190592;67;1125;-64
2022/08/29 13:00:15;;;;;;;;;;;;;;;;;;2190943;59;1966;-64
2022/08/29 13:02:57;;;;;;;;;;;;;;;;;;2190720;59;1234;-64
2022/08/29 13:05:34;;;;;;;;;;;;;;;;;;2190941;67;1141;-64
2022/08/29 13:08:08;;;;;;;;;;;;;;;;;;2190765;67;1030;-63
2022/08/29 13:10:43;;;;;;;;;;;;;;;;;;2190418;59;1241;-64
2022/08/29 13:13:17;;;;;;;;;;;;;;;;;;2191295;67;1141;-64
2022/08/29 13:15:50;;;;;;;;;;;;;;;;;;2190766;67;1121;-65
2022/08/29 13:18:24;;;;;;;;;;;;;;;;;;2191266;67;1226;-64
2022/08/29 13:21:08;;;;;;;;;;;;;;;;;;2190797;67;1991;-62
2022/08/29 13:23:44;;;;;;;;;;;;;;;;;;2190808;67;1213;-62
2022/08/29 13:26:21;;;;;;;;;;;;;;;;;;2191097;59;1709;-62
2022/08/29 13:28:56;;;;;;;;;;;;;;;;;;2190893;59;1433;-62
2022/08/29 13:31:33;;;;;;;;;;;;;;;;;;2190506;67;1251;-63
2022/08/29 13:34:16;;;;;;;;;;;;;;;;;;2191390;67;1205;-64
2022/08/29 13:37:06;;;;;;;;;;;;;;;;;;2190863;67;1136;-64
2022/08/29 13:39:42;;;;;;;;;;;;;;;;;;2190891;67;1992;-64
2022/08/29 13:42:17;;;;;;;;;;;;;;;;;;2191071;67;1815;-63
2022/08/29 13:44:59;;;;;;;;;;;;;;;;;;2191447;67;1207;-65
2022/08/29 13:47:33;;;;;;;;;;;;;;;;;;2191040;67;1191;-65
2022/08/29 13:50:08;;;;;;;;;;;;;;;;;;2192075;59;1279;-63
2022/08/29 13:52:44;;;;;;;;;;;;;;;;;;2191379;67;1198;-64
2022/08/29 13:55:17;;;;;;;;;;;;;;;;;;2191195;67;1196;-63
2022/08/29 13:57:52;;;;;;;;;;;;;;;;;;2191301;67;1124;-64
2022/08/29 14:00:27;;;;;;;;;;;;;;;;;;2190993;59;1929;-64
2022/08/29 14:03:00;;;;;;;;;;;;;;;;;;2191244;59;1357;-62
2022/08/29 14:05:33;;;;;;;;;;;;;;;;;;2191253;67;1118;-64
2022/08/29 14:08:12;;;;;;;;;;;;;;;;;;2191242;67;1133;-62
2022/08/29 14:10:45;;;;;;;;;;;;;;;;;;2190932;59;1278;-63
2022/08/29 14:13:18;;;;;;;;;;;;;;;;;;2191638;67;1254;-63
2022/08/29 14:15:52;;;;;;;;;;;;;;;;;;2190943;67;1148;-62
2022/08/29 14:18:25;;;;;;;;;;;;;;;;;;2191322;67;1854;-62
2022/08/29 14:20:58;;;;;;;;;;;;;;;;;;2190945;67;1928;-60
2022/08/29 14:23:34;;;;;;;;;;;;;;;;;;2191048;67;1250;-61
2022/08/29 14:26:07;;;;;;;;;;;;;;;;;;2191422;67;1995;-61
2022/08/29 14:28:42;;;;;;;;;;;;;;;;;;2190717;59;1355;-61
2022/08/29 14:31:15;;;;;;;;;;;;;;;;;;2191442;59;1311;-62
2022/08/29 14:33:48;;;;;;;;;;;;;;;;;;2191250;67;1149;-63
2022/08/29 14:36:21;;;;;;;;;;;;;;;;;;2191393;59;1269;-59
2022/08/29 14:38:57;;;;;;;;;;;;;;;;;;2190980;67;1235;-63
2022/08/29 14:41:30;;;;;;;;;;;;;;;;;;2191505;67;2003;-63
2022/08/29 14:44:04;;;;;;;;;;;;;;;;;;2191205;67;1274;-61
2022/08/29 14:46:37;;;;;;;;;;;;;;;;;;2191200;67;1271;-61
2022/08/29 14:49:10;;;;;;;;;;;;;;;;;;2190926;67;1192;-64
2022/08/29 14:51:43;;;;;;;;;;;;;;;;;;2190930;67;1235;-63
2022/08/29 14:54:19;;;;;;;;;;;;;;;;;;2191134;67;1290;-62
2022/08/29 14:56:52;;;;;;;;;;;;;;;;;;2190824;67;1116;-59
2022/08/29 14:59:26;;;;;;;;;;;;;;;;;;2190906;67;1258;-63
2022/08/29 15:01:59;;;;;;;;;;;;;;;;;;2190135;59;1991;-64
2022/08/29 15:04:33;;;;;;;;;;;;;;;;;;2191221;67;1910;-64
2022/08/29 15:07:06;;;;;;;;;;;;;;;;;;2190426;67;1143;-63
2022/08/29 15:09:43;;;;;;;;;;;;;;;;;;2191078;59;1403;-63
2022/08/29 15:12:17;;;;;;;;;;;;;;;;;;2191200;59;1233;-64
2022/08/29 15:14:50;;;;;;;;;;;;;;;;;;2190983;67;1200;-64
2022/08/29 15:17:24;;;;;;;;;;;;;;;;;;2191035;67;1228;-65
2022/08/29 15:19:58;;;;;;;;;;;;;;;;;;2190864;67;1936;-63
2022/08/29 15:22:31;;;;;;;;;;;;;;;;;;2190652;67;1236;-63
2022/08/29 15:25:07;;;;;;;;;;;;;;;;;;2190764;67;1234;-63
2022/08/29 15:27:40;;;;;;;;;;;;;;;;;;2191094;59;1659;-64
2022/08/29 15:30:14;;;;;;;;;;;;;;;;;;2190886;67;1281;-65
2022/08/29 15:32:47;;;;;;;;;;;;;;;;;;2190791;67;1255;-63
2022/08/29 15:35:20;;;;;;;;;;;;;;;;;;2190788;67;1304;-62
2022/08/29 15:37:54;;;;;;;;;;;;;;;;;;2190905;59;1375;-62
2022/08/29 15:40:30;;;;;;;;;;;;;;;;;;2191569;67;1938;-65
2022/08/29 15:43:03;;;;;;;;;;;;;;;;;;2190954;67;1343;-63
2022/08/29 15:45:36;;;;;;;;;;;;;;;;;;2192221;67;1188;-64
2022/08/29 15:48:10;;;;;;;;;;;;;;;;;;2190780;67;1157;-63
2022/08/29 15:50:43;;;;;;;;;;;;;;;;;;2191020;67;1228;-64
2022/08/29 15:53:17;;;;;;;;;;;;;;;;;;2191228;67;1146;-61
2022/08/29 15:55:52;;;;;;;;;;;;;;;;;;2191089;67;1240;-63
2022/08/29 15:58:26;;;;;;;;;;;;;;;;;;2191169;67;1360;-63
2022/08/29 16:00:59;;;;;;;;;;;;;;;;;;2190818;59;1938;-63
2022/08/29 16:03:32;;;;;;;;;;;;;;;;;;2191013;59;1309;-64
2022/08/29 16:06:06;;;;;;;;;;;;;;;;;;2191231;67;1163;-63
2022/08/29 16:08:39;;;;;;;;;;;;;;;;;;2191370;67;1204;-64
2022/08/29 16:11:15;;;;;;;;;;;;;;;;;;2191851;59;1582;-64
2022/08/29 16:13:48;;;;;;;;;;;;;;;;;;2191505;67;1251;-63
2022/08/29 16:16:21;;;;;;;;;;;;;;;;;;2191745;67;1243;-64
2022/08/29 16:18:55;;;;;;;;;;;;;;;;;;2191135;59;1889;-63
2022/08/29 16:21:28;;;;;;;;;;;;;;;;;;2191780;67;1929;-63
2022/08/29 16:24:02;;;;;;;;;;;;;;;;;;2191320;67;1227;-62
2022/08/29 16:26:38;;;;;;;;;;;;;;;;;;2191391;59;1644;-63
2022/08/29 16:29:11;;;;;;;;;;;;;;;;;;2191174;59;1716;-64
2022/08/29 16:31:44;;;;;;;;;;;;;;;;;;2191710;67;1210;-62
2022/08/29 16:34:18;;;;;;;;;;;;;;;;;;2192082;67;1243;-64
2022/08/29 16:36:51;;;;;;;;;;;;;;;;;;2191820;59;1302;-63
2022/08/29 16:39:24;;;;;;;;;;;;;;;;;;2191553;67;1164;-64
2022/08/29 16:42:00;;;;;;;;;;;;;;;;;;2191214;67;1924;-63
2022/08/29 16:44:33;;;;;;;;;;;;;;;;;;2191601;67;1250;-64
2022/08/29 16:47:06;;;;;;;;;;;;;;;;;;2191306;67;1110;-64
2022/08/29 16:49:40;;;;;;;;;;;;;;;;;;2191084;67;1217;-61
2022/08/29 16:52:13;;;;;;;;;;;;;;;;;;2191015;67;1230;-64
2022/08/29 16:54:46;;;;;;;;;;;;;;;;;;2190995;67;1117;-64
2022/08/29 16:57:22;;;;;;;;;;;;;;;;;;2190990;67;1238;-63
2022/08/29 16:59:55;;;;;;;;;;;;;;;;;;2190628;67;1121;-62
2022/08/29 17:02:29;;;;;;;;;;;;;;;;;;2190825;67;1971;-63
2022/08/29 17:05:03;;;;;;;;;;;;;;;;;;2191082;59;1292;-61
2022/08/29 17:17:41;;;;;;;;;;;;;;;;;;2191711;67;1130;-60
2022/08/29 17:20:14;;;;;;;;;;;;;;;;;;2191406;67;1217;-63
2022/08/29 17:22:48;;;;;;;;;;;;;;;;;;2190596;67;1949;-63
2022/08/29 17:25:22;;;;;;;;;;;;;;;;;;2190941;67;1240;-64
2022/08/29 17:27:58;;;;;;;;;;;;;;;;;;2190406;59;1685;-64
2022/08/29 17:30:31;;;;;;;;;;;;;;;;;;2190445;67;1101;-64
2022/08/29 17:33:05;;;;;;;;;;;;;;;;;;2191544;67;1126;-64
2022/08/29 17:35:38;;;;;;;;;;;;;;;;;;2191299;59;1335;-64
2022/08/29 17:38:13;;;;;;;;;;;;;;;;;;2191047;59;1312;-62
2022/08/29 17:40:46;;;;;;;;;;;;;;;;;;2190727;67;1949;-62
2022/08/29 17:43:24;;;;;;;;;;;;;;;;;;2191267;67;1248;-63
2022/08/29 17:45:58;;;;;;;;;;;;;;;;;;2190672;67;1679;-62
2022/08/29 17:48:31;;;;;;;;;;;;;;;;;;2194190;67;1076;-63
2022/08/29 17:51:04;;;;;;;;;;;;;;;;;;2190775;67;1232;-64
2022/08/29 17:53:38;;;;;;;;;;;;;;;;;;2191017;67;1078;-62
2022/08/29 17:56:15;;;;;;;;;;;;;;;;;;2190772;67;1185;-62
2022/08/29 17:58:51;;;;;;;;;;;;;;;;;;2190660;67;1157;-63
2022/08/29 18:01:24;;;;;;;;;;;;;;;;;;2190816;67;1936;-63
2022/08/29 18:03:57;;;;;;;;;;;;;;;;;;2190938;67;1293;-62
2022/08/29 18:06:30;;;;;;;;;;;;;;;;;;2191222;67;1200;-61
2022/08/29 18:09:03;;;;;;;;;;;;;;;;;;2190538;59;1189;-63
2022/08/29 18:11:37;;;;;;;;;;;;;;;;;;2191590;59;1410;-62
2022/08/29 18:14:13;;;;;;;;;;;;;;;;;;2190887;67;1201;-62
2022/08/29 18:16:46;;;;;;;;;;;;;;;;;;2190890;67;1157;-63
2022/08/29 18:19:20;;;;;;;;;;;;;;;;;;2191251;67;1271;-62
2022/08/29 18:21:54;;;;;;;;;;;;;;;;;;2190389;67;1949;-61
2022/08/29 18:24:27;;;;;;;;;;;;;;;;;;2191185;67;1248;-60
2022/08/29 18:27:00;;;;;;;;;;;;;;;;;;2190867;59;1778;-63
2022/08/29 18:29:36;;;;;;;;;;;;;;;;;;2191176;67;1113;-64
2022/08/29 18:32:09;;;;;;;;;;;;;;;;;;2191770;67;1235;-62
2022/08/29 18:34:43;;;;;;;;;;;;;;;;;;2190852;67;1102;-62
2022/08/29 18:37:16;;;;;;;;;;;;;;;;;;2191265;59;1335;-60
2022/08/29 18:39:49;;;;;;;;;;;;;;;;;;2190024;67;1222;-62
2022/08/29 18:42:22;;;;;;;;;;;;;;;;;;2190949;67;1931;-63
2022/08/29 18:44:58;;;;;;;;;;;;;;;;;;2190541;67;1148;-64
2022/08/29 18:47:31;;;;;;;;;;;;;;;;;;2190293;67;1128;-61
2022/08/29 18:52:54;;;;;;;;;;;;;;;;;;2190339;67;1140;-63
2022/08/29 18:55:27;;;;;;;;;;;;;;;;;;2190553;67;1290;-62
2022/08/29 18:58:01;;;;;;;;;;;;;;;;;;2190302;67;1294;-61
2022/08/29 19:00:37;;;;;;;;;;;;;;;;;;2190479;59;1252;-61
2022/08/29 19:03:10;;;;;;;;;;;;;;;;;;2190501;59;1929;-59
2022/08/29 19:05:46;;;;;;;;;;;;;;;;;;2190545;67;1161;-62
2022/08/29 19:08:22;;;;;;;;;;;;;;;;;;2189613;59;1655;-61
2022/08/29 19:10:55;;;;;;;;;;;;;;;;;;2190252;59;1225;-63
2022/08/29 19:13:28;;;;;;;;;;;;;;;;;;2189812;67;1111;-64
2022/08/29 19:16:05;;;;;;;;;;;;;;;;;;2189109;67;1310;-63
2022/08/29 19:18:40;;;;;;;;;;;;;;;;;;2190775;67;1100;-64
2022/08/29 19:21:10;;;;;;;;;;;;;;;;;;2190044;67;2003;-63
2022/08/29 19:23:46;;;;;;;;;;;;;;;;;;2191098;67;1097;-63
2022/08/29 19:26:20;;;;;;;;;;;;;;;;;;2190439;59;1709;-63
2022/08/29 19:28:54;;;;;;;;;;;;;;;;;;2190219;59;1347;-62
2022/08/29 19:31:30;;;;;;;;;;;;;;;;;;2190661;67;1234;-62
2022/08/29 19:34:03;;;;;;;;;;;;;;;;;;2190924;67;1154;-62
2022/08/29 19:36:38;;;;;;;;;;;;;;;;;;2190911;59;1378;-64
2022/08/29 19:39:11;;;;;;;;;;;;;;;;;;2190829;67;1216;-61
2022/08/29 19:41:44;;;;;;;;;;;;;;;;;;2190705;67;1928;-63
2022/08/29 19:44:17;;;;;;;;;;;;;;;;;;2191348;67;1175;-64
2022/08/29 19:46:54;;;;;;;;;;;;;;;;;;2191497;67;1189;-62
2022/08/29 19:49:27;;;;;;;;;;;;;;;;;;2191643;67;1115;-64
2022/08/29 19:52:00;;;;;;;;;;;;;;;;;;2191333;67;1234;-62
2022/08/29 19:54:34;;;;;;;;;;;;;;;;;;2191547;67;1107;-61
2022/08/29 19:57:07;;;;;;;;;;;;;;;;;;2190742;67;1042;-63